sensor_id;sensor_type;location;lat;lon;timestamp;pressure;altitude;pressure_sealevel;temperature;humidity
37856;BME280;23694;43.274;26.924;2024-02-21T00:01:57;99630.00;;;4.31;100.00
37856;BME280;23694;43.274;26.924;2024-02-21T00:04:23;99615.50;;;4.26;100.00
37856;BME280;23694;43.274;26.924;2024-02-21T00:06:49;99623.28;;;4.26;100.00
37856;BME280;23694;43.274;26.924;2024-02-21T00:09:16;99620.97;;;4.17;100.00
37856;BME280;23694;43.274;26.924;2024-02-21T00:11:42;99618.22;;;4.21;100.00
37856;BME280;23694;43.274;26.924;2024-02-21T00:14:16;99614.59;;;4.27;100.00
37856;BME280;23694;43.274;26.924;2024-02-21T00:17:18;99619.59;;;4.33;100.00
37856;BME280;23694;43.274;26.924;2024-02-21T00:19:45;99613.00;;;4.23;100.00
37856;BME280;23694;43.274;26.924;2024-02-21T00:22:12;99617.34;;;4.22;100.00
37856;BME280;23694;43.274;26.924;2024-02-21T00:24:38;99619.38;;;4.39;100.00
37856;BME280;23694;43.274;26.924;2024-02-21T00:27:05;99613.09;;;4.46;100.00
37856;BME280;23694;43.274;26.924;2024-02-21T00:29:32;99613.59;;;4.31;100.00
37856;BME280;23694;43.274;26.924;2024-02-21T00:31:58;99616.69;;;4.42;100.00
37856;BME280;23694;43.274;26.924;2024-02-21T00:34:24;99614.03;;;4.43;100.00
37856;BME280;23694;43.274;26.924;2024-02-21T00:36:51;99604.47;;;4.45;100.00
37856;BME280;23694;43.274;26.924;2024-02-21T00:39:17;99606.91;;;4.24;100.00
37856;BME280;23694;43.274;26.924;2024-02-21T00:41:43;99603.72;;;4.16;100.00
37856;BME280;23694;43.274;26.924;2024-02-21T00:44:09;99598.69;;;4.37;100.00
37856;BME280;23694;43.274;26.924;2024-02-21T00:46:36;99590.84;;;4.39;100.00
37856;BME280;23694;43.274;26.924;2024-02-21T00:49:04;99578.88;;;4.61;100.00
37856;BME280;23694;43.274;26.924;2024-02-21T00:51:31;99575.34;;;4.64;100.00
37856;BME280;23694;43.274;26.924;2024-02-21T00:53:57;99580.59;;;4.87;100.00
37856;BME280;23694;43.274;26.924;2024-02-21T00:56:23;99582.28;;;4.88;100.00
37856;BME280;23694;43.274;26.924;2024-02-21T00:58:51;99572.75;;;4.89;100.00
37856;BME280;23694;43.274;26.924;2024-02-21T01:01:26;99578.16;;;4.83;100.00
37856;BME280;23694;43.274;26.924;2024-02-21T01:03:53;99579.84;;;4.59;100.00
37856;BME280;23694;43.274;26.924;2024-02-21T01:06:21;99594.72;;;4.52;100.00
37856;BME280;23694;43.274;26.924;2024-02-21T01:08:47;99589.44;;;4.57;100.00
37856;BME280;23694;43.274;26.924;2024-02-21T01:11:14;99571.81;;;4.40;100.00
37856;BME280;23694;43.274;26.924;2024-02-21T01:13:42;99588.25;;;4.12;100.00
37856;BME280;23694;43.274;26.924;2024-02-21T01:16:09;99587.59;;;3.78;100.00
37856;BME280;23694;43.274;26.924;2024-02-21T01:18:39;99582.63;;;3.42;100.00
37856;BME280;23694;43.274;26.924;2024-02-21T01:21:06;99579.16;;;3.12;100.00
37856;BME280;23694;43.274;26.924;2024-02-21T01:23:34;99580.63;;;3.21;100.00
37856;BME280;23694;43.274;26.924;2024-02-21T01:26:03;99577.19;;;3.21;100.00
37856;BME280;23694;43.274;26.924;2024-02-21T01:28:30;99581.88;;;3.39;100.00
37856;BME280;23694;43.274;26.924;2024-02-21T01:30:58;99583.34;;;3.47;100.00
37856;BME280;23694;43.274;26.924;2024-02-21T01:33:25;99581.53;;;3.49;100.00
37856;BME280;23694;43.274;26.924;2024-02-21T01:35:52;99579.53;;;3.59;100.00
37856;BME280;23694;43.274;26.924;2024-02-21T01:38:18;99568.91;;;3.68;100.00
37856;BME280;23694;43.274;26.924;2024-02-21T01:40:45;99578.47;;;3.94;100.00
37856;BME280;23694;43.274;26.924;2024-02-21T01:43:20;99571.00;;;3.83;100.00
37856;BME280;23694;43.274;26.924;2024-02-21T01:45:49;99580.78;;;3.46;100.00
37856;BME280;23694;43.274;26.924;2024-02-21T01:48:19;99576.03;;;3.60;100.00
37856;BME280;23694;43.274;26.924;2024-02-21T01:50:46;99580.63;;;3.80;100.00
37856;BME280;23694;43.274;26.924;2024-02-21T01:53:16;99575.66;;;4.02;100.00
37856;BME280;23694;43.274;26.924;2024-02-21T01:55:45;99569.91;;;3.92;100.00
37856;BME280;23694;43.274;26.924;2024-02-21T01:58:15;99569.50;;;4.04;100.00
37856;BME280;23694;43.274;26.924;2024-02-21T02:00:42;99580.00;;;4.28;100.00
37856;BME280;23694;43.274;26.924;2024-02-21T02:03:13;99580.44;;;4.14;100.00
37856;BME280;23694;43.274;26.924;2024-02-21T02:05:49;99573.47;;;3.88;100.00
37856;BME280;23694;43.274;26.924;2024-02-21T02:08:20;99574.03;;;3.98;100.00
37856;BME280;23694;43.274;26.924;2024-02-21T02:10:48;99564.53;;;3.98;100.00
37856;BME280;23694;43.274;26.924;2024-02-21T02:13:15;99571.25;;;4.04;100.00
37856;BME280;23694;43.274;26.924;2024-02-21T02:15:46;99569.16;;;3.87;100.00
37856;BME280;23694;43.274;26.924;2024-02-21T02:18:13;99568.59;;;3.77;100.00
37856;BME280;23694;43.274;26.924;2024-02-21T02:20:40;99569.81;;;3.95;100.00
37856;BME280;23694;43.274;26.924;2024-02-21T02:23:10;99568.53;;;4.08;100.00
37856;BME280;23694;43.274;26.924;2024-02-21T02:25:37;99566.38;;;4.21;100.00
37856;BME280;23694;43.274;26.924;2024-02-21T02:28:05;99563.72;;;4.23;100.00
37856;BME280;23694;43.274;26.924;2024-02-21T02:30:36;99554.75;;;4.33;100.00
37856;BME280;23694;43.274;26.924;2024-02-21T02:33:03;99562.38;;;4.37;100.00
37856;BME280;23694;43.274;26.924;2024-02-21T02:35:29;99557.00;;;4.17;100.00
37856;BME280;23694;43.274;26.924;2024-02-21T02:37:56;99573.41;;;3.90;100.00
37856;BME280;23694;43.274;26.924;2024-02-21T02:40:23;99563.91;;;3.62;100.00
37856;BME280;23694;43.274;26.924;2024-02-21T02:42:49;99575.63;;;3.46;100.00
37856;BME280;23694;43.274;26.924;2024-02-21T02:45:17;99572.88;;;3.50;100.00
37856;BME280;23694;43.274;26.924;2024-02-21T02:47:54;99575.53;;;3.49;100.00
37856;BME280;23694;43.274;26.924;2024-02-21T02:50:26;99576.22;;;3.25;100.00
37856;BME280;23694;43.274;26.924;2024-02-21T02:52:54;99573.34;;;3.04;100.00
37856;BME280;23694;43.274;26.924;2024-02-21T02:55:23;99581.22;;;3.00;100.00
37856;BME280;23694;43.274;26.924;2024-02-21T02:57:49;99575.72;;;2.81;100.00
37856;BME280;23694;43.274;26.924;2024-02-21T03:00:16;99564.63;;;3.07;100.00
37856;BME280;23694;43.274;26.924;2024-02-21T03:02:44;99577.22;;;3.19;100.00
37856;BME280;23694;43.274;26.924;2024-02-21T03:05:14;99575.50;;;3.19;100.00
37856;BME280;23694;43.274;26.924;2024-02-21T03:07:41;99576.38;;;3.18;100.00
37856;BME280;23694;43.274;26.924;2024-02-21T03:10:09;99576.28;;;3.22;100.00
37856;BME280;23694;43.274;26.924;2024-02-21T03:12:35;99585.16;;;3.44;100.00
37856;BME280;23694;43.274;26.924;2024-02-21T03:15:02;99571.28;;;3.46;100.00
37856;BME280;23694;43.274;26.924;2024-02-21T03:17:29;99573.50;;;3.59;100.00
37856;BME280;23694;43.274;26.924;2024-02-21T03:19:55;99567.47;;;3.58;100.00
37856;BME280;23694;43.274;26.924;2024-02-21T03:22:22;99570.63;;;3.68;100.00
37856;BME280;23694;43.274;26.924;2024-02-21T03:24:51;99575.47;;;3.78;100.00
37856;BME280;23694;43.274;26.924;2024-02-21T03:27:17;99569.00;;;3.93;100.00
37856;BME280;23694;43.274;26.924;2024-02-21T03:29:43;99575.34;;;4.11;100.00
37856;BME280;23694;43.274;26.924;2024-02-21T03:32:10;99592.22;;;4.24;100.00
37856;BME280;23694;43.274;26.924;2024-02-21T03:34:36;99581.63;;;4.30;100.00
37856;BME280;23694;43.274;26.924;2024-02-21T03:37:03;99585.47;;;4.19;100.00
37856;BME280;23694;43.274;26.924;2024-02-21T03:39:32;99576.72;;;3.95;100.00
37856;BME280;23694;43.274;26.924;2024-02-21T03:41:59;99580.34;;;3.89;100.00
37856;BME280;23694;43.274;26.924;2024-02-21T03:44:33;99574.44;;;4.12;100.00
37856;BME280;23694;43.274;26.924;2024-02-21T03:47:00;99572.91;;;4.06;100.00
37856;BME280;23694;43.274;26.924;2024-02-21T03:49:27;99576.25;;;4.10;100.00
37856;BME280;23694;43.274;26.924;2024-02-21T03:51:53;99585.63;;;4.14;100.00
37856;BME280;23694;43.274;26.924;2024-02-21T03:54:21;99586.47;;;4.14;100.00
37856;BME280;23694;43.274;26.924;2024-02-21T03:56:47;99583.44;;;4.28;100.00
37856;BME280;23694;43.274;26.924;2024-02-21T03:59:15;99595.09;;;4.15;100.00
37856;BME280;23694;43.274;26.924;2024-02-21T04:01:42;99597.22;;;4.02;100.00
37856;BME280;23694;43.274;26.924;2024-02-21T04:04:10;99601.81;;;3.94;100.00
37856;BME280;23694;43.274;26.924;2024-02-21T04:06:36;99594.13;;;3.91;100.00
37856;BME280;23694;43.274;26.924;2024-02-21T04:09:02;99587.69;;;3.75;100.00
37856;BME280;23694;43.274;26.924;2024-02-21T04:11:30;99582.84;;;3.64;100.00
37856;BME280;23694;43.274;26.924;2024-02-21T04:13:57;99590.13;;;3.79;100.00
37856;BME280;23694;43.274;26.924;2024-02-21T04:16:23;99586.94;;;3.71;100.00
37856;BME280;23694;43.274;26.924;2024-02-21T04:18:50;99587.31;;;3.87;100.00
37856;BME280;23694;43.274;26.924;2024-02-21T04:21:17;99592.19;;;3.98;100.00
37856;BME280;23694;43.274;26.924;2024-02-21T04:23:43;99580.72;;;4.05;100.00
37856;BME280;23694;43.274;26.924;2024-02-21T04:26:09;99583.31;;;4.05;100.00
37856;BME280;23694;43.274;26.924;2024-02-21T04:28:35;99572.69;;;3.85;100.00
37856;BME280;23694;43.274;26.924;2024-02-21T04:31:02;99575.66;;;4.02;100.00
37856;BME280;23694;43.274;26.924;2024-02-21T04:33:28;99574.41;;;4.13;100.00
37856;BME280;23694;43.274;26.924;2024-02-21T04:35:54;99575.94;;;4.19;100.00
37856;BME280;23694;43.274;26.924;2024-02-21T04:38:22;99582.78;;;4.22;100.00
37856;BME280;23694;43.274;26.924;2024-02-21T04:40:49;99588.03;;;4.20;100.00
37856;BME280;23694;43.274;26.924;2024-02-21T04:43:16;99580.88;;;4.27;100.00
37856;BME280;23694;43.274;26.924;2024-02-21T04:45:42;99581.69;;;4.29;100.00
37856;BME280;23694;43.274;26.924;2024-02-21T04:48:08;99590.22;;;4.32;100.00
37856;BME280;23694;43.274;26.924;2024-02-21T04:50:34;99586.56;;;4.38;100.00
37856;BME280;23694;43.274;26.924;2024-02-21T04:53:01;99598.69;;;4.37;100.00
37856;BME280;23694;43.274;26.924;2024-02-21T04:55:27;99598.00;;;4.32;100.00
37856;BME280;23694;43.274;26.924;2024-02-21T04:57:53;99597.75;;;4.13;100.00
37856;BME280;23694;43.274;26.924;2024-02-21T05:00:20;99599.41;;;3.87;100.00
37856;BME280;23694;43.274;26.924;2024-02-21T05:02:46;99598.75;;;3.80;100.00
37856;BME280;23694;43.274;26.924;2024-02-21T05:05:12;99607.88;;;3.93;100.00
37856;BME280;23694;43.274;26.924;2024-02-21T05:07:41;99605.50;;;3.86;100.00
37856;BME280;23694;43.274;26.924;2024-02-21T05:10:07;99601.69;;;3.40;100.00
37856;BME280;23694;43.274;26.924;2024-02-21T05:12:35;99604.31;;;3.68;100.00
37856;BME280;23694;43.274;26.924;2024-02-21T05:15:02;99585.91;;;3.77;100.00
37856;BME280;23694;43.274;26.924;2024-02-21T05:17:29;99606.66;;;4.05;100.00
37856;BME280;23694;43.274;26.924;2024-02-21T05:19:56;99611.53;;;4.14;100.00
37856;BME280;23694;43.274;26.924;2024-02-21T05:22:22;99620.88;;;4.20;100.00
37856;BME280;23694;43.274;26.924;2024-02-21T05:24:49;99619.69;;;4.30;100.00
37856;BME280;23694;43.274;26.924;2024-02-21T05:27:17;99615.84;;;4.41;100.00
37856;BME280;23694;43.274;26.924;2024-02-21T05:29:43;99624.13;;;4.53;100.00
37856;BME280;23694;43.274;26.924;2024-02-21T05:32:11;99623.31;;;4.51;100.00
37856;BME280;23694;43.274;26.924;2024-02-21T05:34:38;99625.13;;;4.22;100.00
37856;BME280;23694;43.274;26.924;2024-02-21T05:37:05;99616.38;;;3.98;100.00
37856;BME280;23694;43.274;26.924;2024-02-21T05:39:31;99612.41;;;3.57;100.00
37856;BME280;23694;43.274;26.924;2024-02-21T05:41:58;99620.00;;;3.63;100.00
37856;BME280;23694;43.274;26.924;2024-02-21T05:44:25;99622.34;;;3.71;100.00
37856;BME280;23694;43.274;26.924;2024-02-21T05:46:53;99620.72;;;3.68;100.00
37856;BME280;23694;43.274;26.924;2024-02-21T05:49:19;99625.28;;;3.29;100.00
37856;BME280;23694;43.274;26.924;2024-02-21T05:51:45;99625.88;;;3.39;100.00
37856;BME280;23694;43.274;26.924;2024-02-21T05:54:11;99624.72;;;3.49;100.00
37856;BME280;23694;43.274;26.924;2024-02-21T05:56:38;99629.00;;;3.50;100.00
37856;BME280;23694;43.274;26.924;2024-02-21T05:59:04;99635.22;;;3.44;100.00
37856;BME280;23694;43.274;26.924;2024-02-21T06:01:30;99637.63;;;3.50;100.00
37856;BME280;23694;43.274;26.924;2024-02-21T06:03:57;99641.69;;;3.59;100.00
37856;BME280;23694;43.274;26.924;2024-02-21T06:06:23;99642.72;;;3.54;100.00
37856;BME280;23694;43.274;26.924;2024-02-21T06:08:51;99651.66;;;3.43;100.00
37856;BME280;23694;43.274;26.924;2024-02-21T06:11:18;99646.13;;;3.56;100.00
37856;BME280;23694;43.274;26.924;2024-02-21T06:13:46;99650.59;;;3.50;100.00
37856;BME280;23694;43.274;26.924;2024-02-21T06:16:14;99652.00;;;3.31;100.00
37856;BME280;23694;43.274;26.924;2024-02-21T06:18:42;99644.91;;;3.38;100.00
37856;BME280;23694;43.274;26.924;2024-02-21T06:21:08;99653.91;;;3.56;100.00
37856;BME280;23694;43.274;26.924;2024-02-21T06:23:36;99645.69;;;3.71;100.00
37856;BME280;23694;43.274;26.924;2024-02-21T06:26:03;99640.59;;;3.68;100.00
37856;BME280;23694;43.274;26.924;2024-02-21T06:28:31;99649.28;;;3.65;100.00
37856;BME280;23694;43.274;26.924;2024-02-21T06:30:58;99642.09;;;4.04;100.00
37856;BME280;23694;43.274;26.924;2024-02-21T06:33:25;99653.41;;;4.30;100.00
37856;BME280;23694;43.274;26.924;2024-02-21T06:35:52;99659.03;;;4.42;100.00
37856;BME280;23694;43.274;26.924;2024-02-21T06:38:22;99664.03;;;4.49;100.00
37856;BME280;23694;43.274;26.924;2024-02-21T06:40:49;99661.97;;;4.32;100.00
37856;BME280;23694;43.274;26.924;2024-02-21T06:43:19;99652.69;;;4.25;100.00
37856;BME280;23694;43.274;26.924;2024-02-21T06:45:46;99654.88;;;4.10;100.00
37856;BME280;23694;43.274;26.924;2024-02-21T06:48:17;99658.63;;;4.56;100.00
37856;BME280;23694;43.274;26.924;2024-02-21T06:50:44;99660.50;;;4.77;100.00
37856;BME280;23694;43.274;26.924;2024-02-21T06:53:10;99670.34;;;4.68;100.00
37856;BME280;23694;43.274;26.924;2024-02-21T06:55:37;99670.97;;;4.48;100.00
37856;BME280;23694;43.274;26.924;2024-02-21T06:58:03;99663.81;;;4.28;100.00
37856;BME280;23694;43.274;26.924;2024-02-21T07:00:29;99669.84;;;4.29;100.00
37856;BME280;23694;43.274;26.924;2024-02-21T07:02:57;99663.03;;;4.26;100.00
37856;BME280;23694;43.274;26.924;2024-02-21T07:05:24;99659.63;;;4.24;100.00
37856;BME280;23694;43.274;26.924;2024-02-21T07:07:50;99658.13;;;4.17;100.00
37856;BME280;23694;43.274;26.924;2024-02-21T07:10:17;99657.47;;;4.10;100.00
37856;BME280;23694;43.274;26.924;2024-02-21T07:12:43;99653.97;;;4.11;100.00
37856;BME280;23694;43.274;26.924;2024-02-21T07:15:10;99660.91;;;4.11;100.00
37856;BME280;23694;43.274;26.924;2024-02-21T07:17:36;99660.19;;;4.06;100.00
37856;BME280;23694;43.274;26.924;2024-02-21T07:20:03;99668.22;;;3.98;100.00
37856;BME280;23694;43.274;26.924;2024-02-21T07:22:29;99671.66;;;3.99;100.00
37856;BME280;23694;43.274;26.924;2024-02-21T07:24:56;99670.75;;;4.00;100.00
37856;BME280;23694;43.274;26.924;2024-02-21T07:27:22;99660.53;;;3.95;100.00
37856;BME280;23694;43.274;26.924;2024-02-21T07:29:48;99665.53;;;4.01;100.00
37856;BME280;23694;43.274;26.924;2024-02-21T07:32:15;99660.72;;;4.17;100.00
37856;BME280;23694;43.274;26.924;2024-02-21T07:34:42;99668.31;;;4.23;100.00
37856;BME280;23694;43.274;26.924;2024-02-21T07:37:09;99665.00;;;3.90;100.00
37856;BME280;23694;43.274;26.924;2024-02-21T07:39:38;99672.06;;;4.41;100.00
37856;BME280;23694;43.274;26.924;2024-02-21T07:42:06;99672.69;;;4.75;100.00
37856;BME280;23694;43.274;26.924;2024-02-21T07:44:32;99674.47;;;5.00;100.00
37856;BME280;23694;43.274;26.924;2024-02-21T07:46:58;99681.53;;;5.21;100.00
37856;BME280;23694;43.274;26.924;2024-02-21T07:49:25;99672.53;;;5.31;100.00
37856;BME280;23694;43.274;26.924;2024-02-21T07:51:51;99680.78;;;5.43;100.00
37856;BME280;23694;43.274;26.924;2024-02-21T07:54:19;99668.13;;;5.57;100.00
37856;BME280;23694;43.274;26.924;2024-02-21T07:56:45;99652.88;;;5.71;100.00
37856;BME280;23694;43.274;26.924;2024-02-21T07:59:32;99671.25;;;6.13;100.00
37856;BME280;23694;43.274;26.924;2024-02-21T08:02:01;99667.44;;;6.00;100.00
37856;BME280;23694;43.274;26.924;2024-02-21T08:04:28;99672.91;;;6.16;100.00
37856;BME280;23694;43.274;26.924;2024-02-21T08:06:54;99679.28;;;6.52;100.00
37856;BME280;23694;43.274;26.924;2024-02-21T08:09:24;99675.00;;;6.50;100.00
37856;BME280;23694;43.274;26.924;2024-02-21T08:11:50;99678.66;;;6.46;100.00
37856;BME280;23694;43.274;26.924;2024-02-21T08:14:17;99671.50;;;6.07;100.00
37856;BME280;23694;43.274;26.924;2024-02-21T08:16:43;99678.47;;;5.82;100.00
37856;BME280;23694;43.274;26.924;2024-02-21T08:19:10;99672.16;;;6.12;100.00
37856;BME280;23694;43.274;26.924;2024-02-21T08:21:37;99663.38;;;5.93;100.00
37856;BME280;23694;43.274;26.924;2024-02-21T08:24:04;99658.84;;;5.98;100.00
37856;BME280;23694;43.274;26.924;2024-02-21T08:26:32;99658.16;;;6.80;100.00
37856;BME280;23694;43.274;26.924;2024-02-21T08:28:58;99664.44;;;7.37;100.00
37856;BME280;23694;43.274;26.924;2024-02-21T08:31:28;99652.59;;;7.88;100.00
37856;BME280;23694;43.274;26.924;2024-02-21T08:33:58;99652.25;;;8.32;100.00
37856;BME280;23694;43.274;26.924;2024-02-21T08:36:35;99648.00;;;8.84;100.00
37856;BME280;23694;43.274;26.924;2024-02-21T08:39:03;99654.59;;;9.08;100.00
37856;BME280;23694;43.274;26.924;2024-02-21T08:41:32;99645.47;;;9.17;100.00
37856;BME280;23694;43.274;26.924;2024-02-21T08:43:59;99648.47;;;9.27;100.00
37856;BME280;23694;43.274;26.924;2024-02-21T08:46:26;99649.84;;;9.34;100.00
37856;BME280;23694;43.274;26.924;2024-02-21T08:48:54;99650.38;;;8.88;100.00
37856;BME280;23694;43.274;26.924;2024-02-21T08:51:20;99646.75;;;9.08;100.00
37856;BME280;23694;43.274;26.924;2024-02-21T08:53:48;99647.09;;;9.19;100.00
37856;BME280;23694;43.274;26.924;2024-02-21T08:56:16;99654.28;;;9.32;100.00
37856;BME280;23694;43.274;26.924;2024-02-21T08:58:42;99656.31;;;9.27;100.00
37856;BME280;23694;43.274;26.924;2024-02-21T09:01:08;99660.41;;;9.15;100.00
37856;BME280;23694;43.274;26.924;2024-02-21T09:03:38;99669.44;;;8.73;100.00
37856;BME280;23694;43.274;26.924;2024-02-21T09:06:10;99664.81;;;8.78;100.00
37856;BME280;23694;43.274;26.924;2024-02-21T09:08:36;99657.06;;;8.77;100.00
37856;BME280;23694;43.274;26.924;2024-02-21T09:11:05;99659.81;;;8.56;100.00
37856;BME280;23694;43.274;26.924;2024-02-21T09:13:32;99661.28;;;8.62;100.00
37856;BME280;23694;43.274;26.924;2024-02-21T09:15:59;99654.53;;;8.75;100.00
37856;BME280;23694;43.274;26.924;2024-02-21T09:18:26;99655.91;;;9.00;100.00
37856;BME280;23694;43.274;26.924;2024-02-21T09:20:53;99658.69;;;9.14;100.00
37856;BME280;23694;43.274;26.924;2024-02-21T09:23:19;99657.88;;;9.46;100.00
37856;BME280;23694;43.274;26.924;2024-02-21T09:25:45;99651.22;;;9.57;100.00
37856;BME280;23694;43.274;26.924;2024-02-21T09:28:12;99657.91;;;9.95;100.00
37856;BME280;23694;43.274;26.924;2024-02-21T09:30:39;99662.97;;;10.14;100.00
37856;BME280;23694;43.274;26.924;2024-02-21T09:33:05;99658.66;;;10.13;100.00
37856;BME280;23694;43.274;26.924;2024-02-21T09:35:31;99662.06;;;10.31;100.00
37856;BME280;23694;43.274;26.924;2024-02-21T09:37:59;99663.84;;;10.30;100.00
37856;BME280;23694;43.274;26.924;2024-02-21T09:40:26;99646.06;;;10.20;100.00
37856;BME280;23694;43.274;26.924;2024-02-21T09:43:03;99642.56;;;10.21;100.00
37856;BME280;23694;43.274;26.924;2024-02-21T09:45:37;99651.81;;;10.10;100.00
37856;BME280;23694;43.274;26.924;2024-02-21T09:50:43;99641.47;;;10.40;100.00
37856;BME280;23694;43.274;26.924;2024-02-21T09:53:12;99652.66;;;10.58;100.00
37856;BME280;23694;43.274;26.924;2024-02-21T09:55:40;99644.22;;;10.53;100.00
37856;BME280;23694;43.274;26.924;2024-02-21T09:58:07;99642.50;;;10.68;100.00
37856;BME280;23694;43.274;26.924;2024-02-21T10:00:35;99638.78;;;10.72;100.00
37856;BME280;23694;43.274;26.924;2024-02-21T10:03:03;99642.50;;;10.98;99.60
37856;BME280;23694;43.274;26.924;2024-02-21T10:05:34;99632.38;;;10.92;98.78
37856;BME280;23694;43.274;26.924;2024-02-21T10:08:02;99632.25;;;11.23;98.49
37856;BME280;23694;43.274;26.924;2024-02-21T10:10:29;99618.88;;;11.70;95.06
37856;BME280;23694;43.274;26.924;2024-02-21T10:12:57;99626.41;;;12.18;91.65
37856;BME280;23694;43.274;26.924;2024-02-21T10:15:24;99619.00;;;12.51;89.49
37856;BME280;23694;43.274;26.924;2024-02-21T10:18:01;99602.66;;;12.86;87.31
37856;BME280;23694;43.274;26.924;2024-02-21T10:20:29;99601.47;;;13.29;84.29
37856;BME280;23694;43.274;26.924;2024-02-21T10:23:05;99598.59;;;13.58;79.81
37856;BME280;23694;43.274;26.924;2024-02-21T10:25:35;99584.91;;;13.78;77.77
37856;BME280;23694;43.274;26.924;2024-02-21T10:28:04;99589.72;;;13.84;67.37
37856;BME280;23694;43.274;26.924;2024-02-21T10:30:38;99580.44;;;13.91;64.23
37856;BME280;23694;43.274;26.924;2024-02-21T10:33:05;99574.78;;;14.09;63.31
37856;BME280;23694;43.274;26.924;2024-02-21T10:35:32;99581.91;;;14.19;62.66
37856;BME280;23694;43.274;26.924;2024-02-21T10:37:59;99580.06;;;14.09;61.08
37856;BME280;23694;43.274;26.924;2024-02-21T10:40:28;99578.81;;;14.02;61.75
37856;BME280;23694;43.274;26.924;2024-02-21T10:42:59;99579.19;;;13.84;61.91
37856;BME280;23694;43.274;26.924;2024-02-21T10:45:34;99577.47;;;13.47;62.78
37856;BME280;23694;43.274;26.924;2024-02-21T10:48:14;99584.78;;;12.91;64.78
37856;BME280;23694;43.274;26.924;2024-02-21T10:53:59;99585.44;;;12.42;66.18
37856;BME280;23694;43.274;26.924;2024-02-21T10:59:09;99570.25;;;11.79;68.41
37856;BME280;23694;43.274;26.924;2024-02-21T11:01:35;99570.81;;;11.84;68.71
37856;BME280;23694;43.274;26.924;2024-02-21T11:04:03;99563.50;;;11.75;69.46
37856;BME280;23694;43.274;26.924;2024-02-21T11:06:31;99565.75;;;11.81;69.58
37856;BME280;23694;43.274;26.924;2024-02-21T11:09:06;99552.72;;;11.80;67.90
37856;BME280;23694;43.274;26.924;2024-02-21T11:11:38;99557.41;;;11.74;68.15
37856;BME280;23694;43.274;26.924;2024-02-21T11:14:18;99544.63;;;11.68;66.56
37856;BME280;23694;43.274;26.924;2024-02-21T11:16:44;99548.94;;;11.69;66.36
37856;BME280;23694;43.274;26.924;2024-02-21T11:19:21;99551.41;;;11.72;66.99
37856;BME280;23694;43.274;26.924;2024-02-21T11:21:48;99547.66;;;11.77;66.72
37856;BME280;23694;43.274;26.924;2024-02-21T11:24:32;99547.19;;;11.84;65.81
37856;BME280;23694;43.274;26.924;2024-02-21T11:27:22;99538.63;;;11.66;66.80
37856;BME280;23694;43.274;26.924;2024-02-21T11:29:56;99540.63;;;11.63;66.75
37856;BME280;23694;43.274;26.924;2024-02-21T11:32:22;99534.13;;;11.68;66.56
37856;BME280;23694;43.274;26.924;2024-02-21T11:35:04;99536.84;;;11.67;67.10
37856;BME280;23694;43.274;26.924;2024-02-21T11:37:32;99530.97;;;11.63;68.21
37856;BME280;23694;43.274;26.924;2024-02-21T11:40:05;99534.00;;;11.43;69.80
37856;BME280;23694;43.274;26.924;2024-02-21T11:42:35;99532.03;;;11.32;69.33
37856;BME280;23694;43.274;26.924;2024-02-21T11:45:01;99530.06;;;11.50;65.29
37856;BME280;23694;43.274;26.924;2024-02-21T11:47:28;99533.78;;;11.60;64.32
37856;BME280;23694;43.274;26.924;2024-02-21T11:49:55;99527.84;;;11.30;63.89
37856;BME280;23694;43.274;26.924;2024-02-21T11:52:22;99520.09;;;11.55;63.14
37856;BME280;23694;43.274;26.924;2024-02-21T11:54:51;99517.28;;;11.58;62.21
37856;BME280;23694;43.274;26.924;2024-02-21T11:57:23;99517.66;;;11.66;61.37
37856;BME280;23694;43.274;26.924;2024-02-21T11:59:51;99522.34;;;11.75;61.14
37856;BME280;23694;43.274;26.924;2024-02-21T12:02:18;99528.25;;;11.79;61.46
37856;BME280;23694;43.274;26.924;2024-02-21T12:04:45;99516.25;;;11.75;61.77
37856;BME280;23694;43.274;26.924;2024-02-21T12:07:11;99515.22;;;11.63;61.68
37856;BME280;23694;43.274;26.924;2024-02-21T12:09:37;99512.44;;;11.52;62.59
37856;BME280;23694;43.274;26.924;2024-02-21T12:12:05;99512.69;;;11.62;62.87
37856;BME280;23694;43.274;26.924;2024-02-21T12:14:33;99506.28;;;11.39;63.08
37856;BME280;23694;43.274;26.924;2024-02-21T12:17:00;99504.66;;;11.51;63.12
37856;BME280;23694;43.274;26.924;2024-02-21T12:19:30;99511.84;;;11.61;63.22
37856;BME280;23694;43.274;26.924;2024-02-21T12:22:01;99505.97;;;11.58;63.31
37856;BME280;23694;43.274;26.924;2024-02-21T12:24:28;99496.47;;;11.69;63.10
37856;BME280;23694;43.274;26.924;2024-02-21T12:26:56;99501.44;;;11.74;63.36
37856;BME280;23694;43.274;26.924;2024-02-21T12:29:24;99503.03;;;11.62;63.75
37856;BME280;23694;43.274;26.924;2024-02-21T12:31:51;99502.19;;;11.62;64.23
37856;BME280;23694;43.274;26.924;2024-02-21T12:34:19;99497.50;;;11.67;64.23
37856;BME280;23694;43.274;26.924;2024-02-21T12:36:46;99504.34;;;11.84;62.24
37856;BME280;23694;43.274;26.924;2024-02-21T12:39:15;99492.81;;;11.72;62.01
37856;BME280;23694;43.274;26.924;2024-02-21T12:41:42;99498.50;;;11.93;61.89
37856;BME280;23694;43.274;26.924;2024-02-21T12:44:10;99494.63;;;11.98;62.04
37856;BME280;23694;43.274;26.924;2024-02-21T12:46:38;99492.97;;;12.10;61.82
37856;BME280;23694;43.274;26.924;2024-02-21T12:49:06;99495.75;;;12.21;61.57
37856;BME280;23694;43.274;26.924;2024-02-21T12:51:35;99492.09;;;11.97;62.71
37856;BME280;23694;43.274;26.924;2024-02-21T12:54:02;99502.41;;;12.00;63.40
37856;BME280;23694;43.274;26.924;2024-02-21T12:56:31;99494.25;;;12.17;62.39
37856;BME280;23694;43.274;26.924;2024-02-21T12:58:59;99495.09;;;12.18;62.63
37856;BME280;23694;43.274;26.924;2024-02-21T13:01:26;99488.34;;;12.01;62.90
37856;BME280;23694;43.274;26.924;2024-02-21T13:03:53;99487.84;;;12.09;62.90